Time;durP1;ratioP1;P1;durP2;ratioP2;P2;SDS_P1;SDS_P2;PMS_P1;PMS_P2;Temp;Humidity;BMP_temperature;BMP_pressure;BME280_temperature;BME280_humidity;BME280_pressure;Samples;Min_cycle;Max_cycle;Signal;HPM_P1;HPM_P2
2022/10/08 00:01:07;;;;;;;19.00;5.72;;;;;;;9.68;79.38;100443.31;4960773;28;20098;-84
2022/10/08 00:03:42;;;;;;;17.98;6.47;;;;;;;9.56;79.48;100419.88;4954918;28;20089;-82
2022/10/08 00:06:19;;;;;;;27.55;6.47;;;;;;;9.65;79.60;100445.50;4954766;29;20047;-82
2022/10/08 00:09:11;;;;;;;28.33;6.18;;;;;;;9.64;79.25;100435.69;4967598;28;20043;-82
2022/10/08 00:11:39;;;;;;;15.85;6.32;;;;;;;9.64;79.32;100449.34;4951840;29;20165;-81
2022/10/08 00:14:06;;;;;;;19.60;7.03;;;;;;;9.43;79.63;100411.47;4954033;28;20130;-82
2022/10/08 00:16:38;;;;;;;28.30;7.25;;;;;;;9.53;79.66;100438.72;4954295;29;20043;-81
2022/10/08 00:19:07;;;;;;;26.98;7.70;;;;;;;9.52;79.94;100437.91;4964734;28;20035;-82
2022/10/08 00:21:36;;;;;;;22.58;6.72;;;;;;;9.51;80.00;100433.56;4955008;28;20043;-80
2022/10/08 00:24:04;;;;;;;24.65;7.70;;;;;;;9.50;79.95;100434.63;4962187;28;20421;-83
2022/10/08 00:26:32;;;;;;;28.33;7.22;;;;;;;9.32;80.13;100408.75;4954458;28;20098;-83
2022/10/08 00:29:01;;;;;;;20.83;7.65;;;;;;;9.47;80.25;100435.22;4957415;28;20079;-83
2022/10/08 00:31:32;;;;;;;21.48;8.27;;;;;;;9.26;80.36;100395.41;4953080;29;20036;-82
2022/10/08 00:34:01;;;;;;;33.95;8.68;;;;;;;9.42;80.27;100435.22;4949148;29;20039;-82
2022/10/08 00:36:33;;;;;;;31.40;7.88;;;;;;;9.44;80.21;100434.91;4954172;28;20043;-82
2022/10/08 00:39:08;;;;;;;25.95;8.35;;;;;;;9.21;80.28;100399.00;4952942;28;20106;-82
2022/10/08 00:41:37;;;;;;;26.95;8.73;;;;;;;9.37;80.35;100441.50;4954055;29;20105;-82
2022/10/08 00:44:49;;;;;;;27.08;8.95;;;;;;;9.29;80.53;100416.69;4934629;29;20484;-82
2022/10/08 00:47:24;;;;;;;26.85;7.80;;;;;;;9.36;80.57;100428.13;4952922;29;20166;-82
2022/10/08 00:49:54;;;;;;;26.13;9.00;;;;;;;9.34;80.65;100435.78;4952644;29;20043;-81
2022/10/08 00:52:21;;;;;;;29.30;8.15;;;;;;;9.34;80.72;100422.97;4952646;28;20046;-81
2022/10/08 00:54:50;;;;;;;25.40;8.63;;;;;;;9.32;80.34;100422.41;4953118;28;20043;-85
2022/10/08 00:57:18;;;;;;;35.85;8.07;;;;;;;9.41;80.39;100439.03;4953516;28;20054;-82
2022/10/08 00:59:44;;;;;;;24.67;7.60;;;;;;;9.10;80.44;100379.06;4952766;28;20084;-83
2022/10/08 01:02:12;;;;;;;20.98;7.75;;;;;;;9.44;80.54;100434.91;4953041;28;20516;-82
2022/10/08 01:04:41;;;;;;;25.92;8.10;;;;;;;9.52;80.38;100429.72;4953804;28;20066;-81
2022/10/08 01:07:22;;;;;;;21.20;6.30;;;;;;;9.28;80.26;100398.69;4953453;29;20043;-81
2022/10/08 01:10:01;;;;;;;21.27;7.30;;;;;;;9.34;80.29;100397.59;4953286;29;20043;-83
2022/10/08 01:12:33;;;;;;;16.90;6.63;;;;;;;9.62;80.12;100442.50;4953475;29;20456;-82
2022/10/08 01:15:22;;;;;;;26.85;6.50;;;;;;;9.26;79.96;100387.22;4951774;29;20039;-81
2022/10/08 01:18:25;;;;;;;18.98;5.68;;;;;;;9.51;79.97;100416.34;4951776;29;20417;-82
2022/10/08 01:21:23;;;;;;;19.88;5.75;;;;;;;9.73;79.73;100444.09;4953213;28;20047;-82
2022/10/08 01:24:06;;;;;;;21.13;5.60;;;;;;;9.52;79.89;100418.78;4946719;29;20520;-82
2022/10/08 01:26:35;;;;;;;22.13;6.35;;;;;;;9.73;79.86;100446.81;4953467;29;20079;-82
2022/10/08 01:29:04;;;;;;;19.13;5.60;;;;;;;9.78;79.77;100456.94;4952712;28;20048;-85
2022/10/08 01:31:38;;;;;;;25.08;5.70;;;;;;;9.77;79.71;100458.84;4951558;28;20090;-83
2022/10/08 01:34:23;;;;;;;12.43;4.95;;;;;;;9.72;79.88;100450.66;4952910;29;20043;-85
2022/10/08 01:36:51;;;;;;;16.98;5.25;;;;;;;9.69;79.83;100447.66;4951898;29;20055;-82
2022/10/08 01:39:28;;;;;;;16.48;4.78;;;;;;;9.79;79.84;100451.16;4952940;29;20047;-83
2022/10/08 01:41:57;;;;;;;19.33;4.78;;;;;;;9.65;79.75;100434.56;4953528;29;20051;-83
2022/10/08 01:44:33;;;;;;;19.48;5.10;;;;;;;9.77;79.85;100444.38;4952838;29;20505;-83
2022/10/08 01:47:06;;;;;;;22.73;5.65;;;;;;;9.76;80.08;100442.72;4943428;29;20059;-81
2022/10/08 01:49:55;;;;;;;14.63;5.53;;;;;;;9.76;80.00;100451.72;4952818;29;20094;-82
2022/10/08 01:52:35;;;;;;;25.60;5.40;;;;;;;9.68;79.97;100435.94;4953425;29;20429;-82
2022/10/08 01:55:07;;;;;;;20.70;5.30;;;;;;;9.69;80.18;100445.75;4952856;29;20053;-81
2022/10/08 01:57:35;;;;;;;18.90;4.80;;;;;;;9.57;80.08;100435.16;4946236;29;20505;-81
2022/10/08 02:00:11;;;;;;;20.52;5.30;;;;;;;9.72;80.14;100449.84;4952014;28;20047;-83
2022/10/08 02:02:41;;;;;;;33.17;6.75;;;;;;;9.62;80.15;100432.41;4953003;28;20102;-82
2022/10/08 02:05:08;;;;;;;16.52;4.60;;;;;;;9.75;79.90;100452.84;4956762;29;20389;-83
2022/10/08 02:07:37;;;;;;;17.50;5.03;;;;;;;9.69;80.05;100444.94;4955960;28;20529;-83
2022/10/08 02:10:16;;;;;;;21.88;5.30;;;;;;;9.78;79.98;100456.94;4956699;28;20039;-81
2022/10/08 02:12:43;;;;;;;21.23;5.47;;;;;;;9.60;80.02;100425.59;4956790;29;20050;-85
2022/10/08 02:15:21;;;;;;;16.75;5.07;;;;;;;9.78;79.90;100452.28;4956841;28;20513;-82
2022/10/08 02:17:58;;;;;;;15.90;4.68;;;;;;;9.74;79.93;100447.66;4946087;28;20449;-84
2022/10/08 02:20:31;;;;;;;16.73;5.00;;;;;;;9.69;80.20;100451.22;4956504;29;20054;-86
2022/10/08 02:23:18;;;;;;;17.48;5.28;;;;;;;9.72;80.13;100447.94;4937519;29;20413;-83
2022/10/08 02:25:52;;;;;;;15.18;5.20;;;;;;;9.64;80.17;100435.69;4938303;29;20049;-81
2022/10/08 02:28:30;;;;;;;17.50;5.28;;;;;;;9.79;80.09;100455.81;4955462;28;20050;-83
2022/10/08 02:31:08;;;;;;;15.13;5.35;;;;;;;9.76;79.84;100438.06;4956578;29;20071;-84
2022/10/08 02:33:43;;;;;;;18.70;5.03;;;;;;;9.80;79.55;100444.63;4939223;29;20462;-82
2022/10/08 02:36:13;;;;;;;20.90;4.93;;;;;;;9.80;79.63;100443.78;4952251;29;20052;-82
2022/10/08 02:38:49;;;;;;;21.25;5.32;;;;;;;9.78;79.80;100451.47;4955262;28;20031;-82
2022/10/08 02:41:17;;;;;;;21.02;5.18;;;;;;;9.45;79.70;100396.44;4938621;29;20062;-83
2022/10/08 02:43:47;;;;;;;16.17;5.13;;;;;;;9.81;79.81;100450.91;4956124;28;20099;-83
2022/10/08 02:46:19;;;;;;;20.90;4.97;;;;;;;9.88;79.97;100459.59;4955933;29;20038;-81
2022/10/08 02:49:01;;;;;;;20.50;4.72;;;;;;;9.81;79.65;100456.38;4938074;29;20066;-85
2022/10/08 02:51:31;;;;;;;15.27;4.57;;;;;;;9.69;79.71;100434.84;4938673;29;20126;-82
2022/10/08 02:56:48;;;;;;;15.98;4.60;;;;;;;9.80;79.60;100451.97;4956039;28;20413;-84
2022/10/08 02:59:17;;;;;;;20.17;4.75;;;;;;;9.84;79.61;100455.81;4955389;29;20050;-84
2022/10/08 03:01:49;;;;;;;18.33;5.10;;;;;;;9.84;79.62;100447.63;4955072;29;20054;-84
2022/10/08 03:04:25;;;;;;;26.77;5.53;;;;;;;9.95;79.49;100462.03;4955563;28;20035;-84
2022/10/08 03:06:53;;;;;;;23.25;5.40;;;;;;;9.99;79.42;100458.44;4955407;29;20047;-82
2022/10/08 03:09:22;;;;;;;22.95;5.55;;;;;;;9.75;79.30;100432.91;4955292;29;20043;-82
2022/10/08 03:11:49;;;;;;;16.85;4.72;;;;;;;9.86;79.47;100459.06;4955342;29;20047;-82
2022/10/08 03:14:19;;;;;;;20.08;5.47;;;;;;;9.82;79.45;100444.34;4953292;29;20043;-83
2022/10/08 03:16:46;;;;;;;22.30;4.60;;;;;;;9.50;79.50;100392.88;4955477;29;20501;-83
2022/10/08 03:19:17;;;;;;;19.92;5.57;;;;;;;9.95;79.34;100460.13;4955461;28;20043;-84
2022/10/08 03:21:46;;;;;;;19.58;5.05;;;;;;;9.94;79.37;100449.50;4954224;29;20039;-84
2022/10/08 03:24:13;;;;;;;22.98;5.10;;;;;;;9.93;79.32;100462.31;4946976;29;20035;-84
2022/10/08 03:26:40;;;;;;;15.80;4.80;;;;;;;9.82;79.48;100441.59;4955264;28;20035;-83
2022/10/08 03:29:08;;;;;;;24.88;5.35;;;;;;;9.93;79.41;100454.09;4941535;29;20066;-84
2022/10/08 03:31:34;;;;;;;16.95;4.72;;;;;;;9.82;79.27;100439.69;4954336;28;20035;-84
2022/10/08 03:34:00;;;;;;;17.73;4.77;;;;;;;9.98;79.08;100458.75;4954859;28;20043;-82
2022/10/08 03:36:28;;;;;;;21.17;4.78;;;;;;;9.92;79.15;100452.47;4955425;28;20074;-83
2022/10/08 03:38:54;;;;;;;21.17;4.72;;;;;;;9.86;79.00;100431.75;4954128;29;20126;-84
2022/10/08 03:41:21;;;;;;;16.02;4.75;;;;;;;9.98;78.98;100448.63;4954726;28;20106;-84
2022/10/08 03:43:47;;;;;;;15.38;4.40;;;;;;;10.00;79.04;100460.09;4955288;28;20051;-83
2022/10/08 03:46:14;;;;;;;16.83;4.85;;;;;;;10.00;78.88;100454.66;4954590;28;20166;-83
2022/10/08 03:48:41;;;;;;;;;;;;;;;10.04;79.04;100454.91;4954889;28;20506;-83
2022/10/08 03:51:12;;;;;;;19.38;4.18;;;;;;;9.94;79.09;100447.56;4954549;28;19922;-84
2022/10/08 03:53:40;;;;;;;16.23;4.50;;;;;;;9.99;79.05;100463.91;4954185;29;20047;-83
2022/10/08 03:56:12;;;;;;;20.00;4.95;;;;;;;9.87;79.05;100447.06;4954969;28;20070;-82
2022/10/08 03:58:39;;;;;;;16.98;4.53;;;;;;;10.01;79.04;100466.38;4954717;28;20043;-83
2022/10/08 04:01:16;;;;;;;21.55;5.50;;;;;;;9.92;79.08;100466.13;4953846;28;20050;-83
2022/10/08 04:03:44;;;;;;;;;;;;;;;9.98;79.32;100464.22;4955483;28;20047;-83
2022/10/08 04:06:11;;;;;;;18.65;4.95;;;;;;;9.91;79.16;100450.03;4954421;28;19922;-82
2022/10/08 04:08:37;;;;;;;;;;;;;;;10.01;79.06;100464.47;4954884;29;20126;-83
2022/10/08 04:11:04;;;;;;;17.93;4.27;;;;;;;10.01;79.07;100456.28;4954779;28;20017;-82
2022/10/08 04:13:31;;;;;;;22.92;6.20;;;;;;;10.08;79.07;100469.63;4954264;29;20078;-83
2022/10/08 04:16:02;;;;;;;17.33;4.50;;;;;;;10.11;78.72;100471.78;4954540;29;20077;-81
2022/10/08 04:18:29;;;;;;;18.02;4.35;;;;;;;9.83;78.80;100424.13;4954397;28;20051;-82
2022/10/08 04:21:04;;;;;;;10.98;4.55;;;;;;;10.08;78.59;100467.69;4953711;28;20073;-82
2022/10/08 04:23:33;;;;;;;16.05;4.22;;;;;;;10.15;78.87;100472.03;4954182;28;20055;-81
2022/10/08 04:25:59;;;;;;;11.48;4.30;;;;;;;10.12;78.46;100448.81;4953608;28;20118;-82
2022/10/08 04:28:26;;;;;;;17.45;4.45;;;;;;;10.19;78.26;100467.66;4953871;28;20465;-82
2022/10/08 04:30:58;;;;;;;24.48;4.35;;;;;;;10.24;78.49;100465.72;4953535;29;20047;-85
2022/10/08 04:33:25;;;;;;;20.40;4.20;;;;;;;10.03;78.34;100437.69;4953824;29;20043;-84
2022/10/08 04:35:52;;;;;;;15.30;4.25;;;;;;;10.01;78.25;100436.34;4954538;29;20053;-82
2022/10/08 04:38:18;;;;;;;11.32;4.03;;;;;;;10.22;78.10;100462.44;4953792;28;20044;-82
2022/10/08 04:40:44;;;;;;;20.30;4.78;;;;;;;10.27;77.95;100469.84;4924349;29;20085;-82
2022/10/08 04:43:11;;;;;;;22.02;4.72;;;;;;;10.24;77.80;100460.25;4953187;28;20198;-84
2022/10/08 04:45:44;;;;;;;16.10;4.70;;;;;;;10.27;77.84;100458.91;4953825;28;20043;-84
2022/10/08 04:48:11;;;;;;;24.45;4.75;;;;;;;10.41;77.58;100481.75;4950329;29;20102;-81
2022/10/08 04:50:38;;;;;;;15.75;4.40;;;;;;;10.26;77.43;100444.38;4948924;29;20066;-83
2022/10/08 04:53:06;;;;;;;20.30;5.57;;;;;;;10.38;77.35;100474.13;4950796;29;20031;-84
2022/10/08 04:55:32;;;;;;;19.10;6.00;;;;;;;10.23;77.58;100441.38;4953994;29;20051;-82
2022/10/08 04:57:59;;;;;;;19.60;7.07;;;;;;;10.34;77.61;100446.53;4953713;29;20032;-83
2022/10/08 05:00:25;;;;;;;27.77;8.48;;;;;;;10.46;76.95;100461.75;4953500;29;20421;-82
2022/10/08 05:02:51;;;;;;;24.33;7.40;;;;;;;10.67;76.94;100484.31;4953131;29;20031;-83
2022/10/08 05:05:18;;;;;;;29.85;11.68;;;;;;;10.60;76.57;100468.25;4953850;28;20078;-83
2022/10/08 05:07:44;;;;;;;27.73;6.30;;;;;;;10.70;76.49;100483.75;4953691;29;20592;-88
2022/10/08 05:10:10;;;;;;;25.90;8.85;;;;;;;10.65;76.48;100472.84;4953228;28;20055;-89
2022/10/08 05:12:36;;;;;;;23.80;7.43;;;;;;;10.71;76.19;100485.38;4953186;29;20532;-86
2022/10/08 05:15:06;;;;;;;21.58;5.35;;;;;;;10.50;76.46;100451.91;4953461;28;20085;-82
2022/10/08 05:17:33;;;;;;;18.38;6.45;;;;;;;10.73;76.28;100485.94;4953414;28;20036;-82
2022/10/08 05:19:59;;;;;;;22.73;5.00;;;;;;;10.74;76.12;100488.38;4952958;29;20386;-81
2022/10/08 05:22:25;;;;;;;17.70;5.18;;;;;;;10.63;76.41;100473.16;4953113;29;20071;-85
2022/10/08 05:24:51;;;;;;;29.77;10.80;;;;;;;10.71;76.08;100485.38;4936845;29;20051;-82
2022/10/08 05:27:17;;;;;;;34.17;10.02;;;;;;;10.79;75.84;100492.97;4935878;29;20398;-84
2022/10/08 05:29:43;;;;;;;15.98;4.65;;;;;;;10.69;76.30;100471.16;4952561;28;20106;-83
2022/10/08 05:32:09;;;;;;;16.65;5.65;;;;;;;10.82;75.93;100492.41;4952962;28;20051;-84
2022/10/08 05:34:35;;;;;;;50.35;18.80;;;;;;;10.60;75.61;100453.75;4953110;28;20036;-83
2022/10/08 05:37:01;;;;;;;42.28;12.15;;;;;;;10.73;75.58;100485.94;4953181;28;20039;-84
2022/10/08 05:39:27;;;;;;;50.03;14.18;;;;;;;10.75;75.80;100480.97;4957092;28;20046;-83
2022/10/08 05:41:53;;;;;;;20.48;5.32;;;;;;;10.66;75.87;100466.25;4957285;28;20134;-82
2022/10/08 05:44:19;;;;;;;26.00;9.57;;;;;;;10.64;75.90;100457.53;4956496;29;20531;-82
2022/10/08 05:46:45;;;;;;;31.13;8.57;;;;;;;10.85;76.04;100491.81;4938348;29;20425;-83
2022/10/08 05:49:21;;;;;;;28.90;6.22;;;;;;;10.91;76.01;100479.75;4938461;29;20066;-83
2022/10/08 05:51:48;;;;;;;36.28;11.02;;;;;;;10.98;75.53;100491.16;4955959;29;20126;-83
2022/10/08 05:54:14;;;;;;;;;;;;;;;11.11;75.25;100499.81;4951668;29;20051;-82
2022/10/08 05:56:41;;;;;;;31.70;11.15;;;;;;;11.03;74.90;100485.66;4955199;29;19930;-84
2022/10/08 05:59:14;;;;;;;18.20;5.07;;;;;;;10.79;75.40;100455.50;4955339;29;20067;-83
2022/10/08 06:01:40;;;;;;;20.42;6.13;;;;;;;11.03;75.37;100479.38;4938149;29;20729;-81
2022/10/08 06:04:09;;;;;;;37.88;13.65;;;;;;;10.95;74.80;100469.84;4955673;29;20074;-80
2022/10/08 06:06:36;;;;;;;21.58;6.28;;;;;;;11.08;74.58;100481.25;4955153;28;20043;-80
2022/10/08 06:09:03;;;;;;;278.80;79.72;;;;;;;11.18;74.40;100489.34;4955460;28;20048;-82
2022/10/08 06:11:32;;;;;;;50.28;15.00;;;;;;;11.11;74.25;100450.56;4955404;28;20745;-84
2022/10/08 06:13:59;;;;;;;27.70;7.90;;;;;;;11.20;73.80;100459.78;4923679;29;20437;-83
2022/10/08 06:16:27;;;;;;;20.50;6.55;;;;;;;11.46;73.27;100502.22;4957005;28;20497;-83
2022/10/08 06:18:54;;;;;;;20.75;4.93;;;;;;;11.51;73.41;100506.81;4954407;28;20075;-84
2022/10/08 06:21:22;;;;;;;20.25;6.00;;;;;;;11.10;73.02;100435.25;4954426;29;20051;-82
2022/10/08 06:23:53;;;;;;;22.45;5.97;;;;;;;11.54;72.73;100498.03;4956600;28;20070;-82
2022/10/08 06:26:21;;;;;;;20.10;4.88;;;;;;;11.63;72.88;100503.69;4939489;29;20040;-82
2022/10/08 06:28:48;;;;;;;21.50;4.88;;;;;;;11.57;72.92;100474.72;4956044;28;20106;-83
2022/10/08 06:31:15;;;;;;;49.40;19.23;;;;;;;11.48;72.04;100447.97;4955764;29;20133;-82
2022/10/08 06:33:42;;;;;;;40.75;18.88;;;;;;;11.90;72.38;100501.22;4956235;28;20047;-82
2022/10/08 06:36:20;;;;;;;29.33;11.52;;;;;;;12.06;72.04;100509.25;4956481;28;20047;-82
2022/10/08 06:38:54;;;;;;;26.02;7.00;;;;;;;12.07;71.64;100488.94;4956260;28;20043;-82
2022/10/08 06:41:20;;;;;;;23.73;6.50;;;;;;;12.14;71.68;100503.91;4955993;29;20055;-83
2022/10/08 06:43:47;;;;;;;20.38;6.72;;;;;;;12.01;71.29;100487.38;4956352;29;20046;-83
2022/10/08 06:46:14;;;;;;;24.65;6.97;;;;;;;12.22;71.28;100500.53;4956408;28;20050;-82
2022/10/08 06:48:40;;;;;;;24.25;5.97;;;;;;;11.89;71.06;100452.19;4956064;28;20069;-82
2022/10/08 06:51:13;;;;;;;28.35;5.35;;;;;;;11.95;70.60;100483.88;4955457;29;20050;-82
2022/10/08 06:53:42;;;;;;;17.98;5.20;;;;;;;12.08;71.00;100496.06;4955941;29;20078;-83
2022/10/08 06:56:14;;;;;;;23.38;5.35;;;;;;;11.76;70.31;100446.28;4956246;28;20118;-83
2022/10/08 06:58:43;;;;;;;25.02;5.88;;;;;;;12.10;71.00;100499.31;4955811;29;20478;-83
2022/10/08 07:01:25;;;;;;;15.60;4.85;;;;;;;12.12;69.97;100506.16;4955951;28;20046;-83
2022/10/08 07:06:21;;;;;;;21.95;4.82;;;;;;;12.18;69.80;100484.94;4956198;29;20453;-84
2022/10/08 07:08:58;;;;;;;18.45;5.68;;;;;;;12.25;69.30;100487.31;4955646;28;20444;-83
2022/10/08 07:11:26;;;;;;;17.45;4.22;;;;;;;12.40;68.69;100487.94;4955841;29;20039;-83
2022/10/08 07:13:57;;;;;;;25.65;4.57;;;;;;;12.40;68.01;100484.38;4938636;29;20043;-84
2022/10/08 07:16:25;;;;;;;20.40;4.70;;;;;;;12.33;68.46;100465.56;4938564;29;20513;-83
2022/10/08 07:18:53;;;;;;;20.30;4.38;;;;;;;12.30;67.39;100451.63;4955287;29;20059;-82
2022/10/08 07:21:21;;;;;;;26.75;5.10;;;;;;;12.68;67.30;100501.78;4955552;28;20412;-83
2022/10/08 07:23:47;;;;;;;20.38;4.32;;;;;;;12.80;66.48;100499.41;4955253;28;20110;-83
2022/10/08 07:26:25;;;;;;;14.18;4.60;;;;;;;12.86;66.42;100489.97;4955654;28;20043;-83
2022/10/08 07:28:55;;;;;;;21.40;4.18;;;;;;;12.87;65.47;100475.13;4955186;28;20059;-83
2022/10/08 07:34:16;;;;;;;20.35;4.15;;;;;;;12.87;64.61;100430.41;5247056;23;20051;-94
2022/10/08 07:36:42;;;;;;;23.50;4.68;;;;;;;13.32;65.06;100489.22;4912601;29;20063;-93
2022/10/08 07:39:14;;;;;;;17.02;4.32;;;;;;;13.08;65.07;100425.41;4911272;29;20048;-90
2022/10/08 07:41:42;;;;;;;23.02;5.57;;;;;;;12.99;65.72;100402.50;4941297;29;20078;-90
2022/10/08 07:44:13;;;;;;;20.23;3.80;;;;;;;13.34;63.44;100456.78;4963685;28;20035;-89
2022/10/08 07:46:44;;;;;;;15.45;5.10;;;;;;;13.35;64.24;100450.16;4932680;29;20464;-90
2022/10/08 07:49:20;;;;;;;16.70;4.85;;;;;;;13.59;63.52;100485.69;4947020;29;20102;-92
2022/10/08 07:51:46;;;;;;;15.57;3.92;;;;;;;13.57;64.73;100465.13;4944594;29;20046;-89
2022/10/08 07:54:18;;;;;;;22.08;4.32;;;;;;;13.24;62.77;100420.41;4929995;29;20081;-92
2022/10/08 07:56:44;;;;;;;15.38;3.75;;;;;;;13.53;62.52;100459.44;4929982;29;20043;-90
2022/10/08 07:59:13;;;;;;;16.90;3.80;;;;;;;13.68;62.32;100466.56;4928671;29;20069;-91
2022/10/08 08:01:40;;;;;;;10.57;3.35;;;;;;;13.70;62.43;100458.00;4943677;29;20534;-96
2022/10/08 08:04:19;;;;;;;22.52;4.30;;;;;;;13.43;61.87;100373.66;4929435;29;20547;-93
2022/10/08 08:06:51;;;;;;;17.23;3.55;;;;;;;13.81;61.20;100430.03;4930678;29;20043;-91
2022/10/08 08:09:18;;;;;;;21.58;4.72;;;;;;;14.01;61.64;100452.69;4911772;29;20050;-90
2022/10/08 08:11:47;;;;;;;22.40;4.97;;;;;;;14.13;61.03;100457.66;4911338;29;20043;-92
2022/10/08 08:14:13;;;;;;;20.83;3.80;;;;;;;13.80;61.03;100403.63;4926879;29;20539;-93
2022/10/08 08:16:40;;;;;;;13.33;3.77;;;;;;;14.08;61.45;100426.41;4927059;29;20051;-94
2022/10/08 08:19:06;;;;;;;17.73;4.20;;;;;;;14.48;60.16;100469.78;4911631;29;20042;-90
2022/10/08 08:21:37;;;;;;;21.67;3.95;;;;;;;14.55;59.55;100475.72;4911801;29;20189;-95
2022/10/08 08:24:07;;;;;;;19.75;4.13;;;;;;;14.58;59.86;100464.09;4911225;29;20039;-91
2022/10/08 08:26:37;;;;;;;24.38;4.35;;;;;;;14.61;58.78;100438.69;4912074;29;20047;-94
2022/10/08 08:32:58;;;;;;;;;;;;;;;14.98;58.38;100455.94;4976798;28;20090;-89
2022/10/08 08:35:51;;;;;;;18.75;3.72;;;;;;;14.85;57.15;100432.06;5008272;23;19933;-89
2022/10/08 08:38:19;;;;;;;20.05;3.90;;;;;;;14.80;58.09;100425.56;4979523;28;20146;-89
2022/10/08 08:44:39;;;;;;;13.63;3.45;;;;;;;14.54;57.11;100366.78;4907732;29;20052;-93
2022/10/08 08:47:40;;;;;;;20.17;4.78;;;;;;;14.90;56.91;100413.47;4891222;29;20091;-93
2022/10/08 08:50:28;;;;;;;23.95;7.22;;;;;;;14.67;57.06;100389.81;4902325;29;20044;-91
2022/10/08 08:52:55;;;;;;;18.92;5.00;;;;;;;15.10;57.57;100425.91;4909022;29;20554;-91
2022/10/08 08:55:45;;;;;;;16.25;4.35;;;;;;;14.95;55.50;100358.25;4874996;29;20569;-89
2022/10/08 08:58:48;;;;;;;27.50;7.18;;;;;;;15.68;58.22;100397.28;4921318;29;20557;-92
2022/10/08 09:01:36;;;;;;;23.70;7.85;;;;;;;15.67;56.23;100387.41;4902759;29;20056;-93
2022/10/08 09:04:16;;;;;;;23.48;7.47;;;;;;;16.06;53.92;100424.28;4889303;29;20072;-93
2022/10/08 09:06:44;;;;;;;19.67;6.00;;;;;;;15.76;52.16;100395.69;4904305;29;20058;-90
2022/10/08 09:09:30;;;;;;;19.27;4.55;;;;;;;15.85;53.04;100379.97;4889675;29;20051;-93
2022/10/08 09:11:56;;;;;;;13.93;4.80;;;;;;;15.79;52.89;100374.91;4919262;29;20044;-89
2022/10/08 09:14:25;;;;;;;;;;;;;;;16.09;54.33;100409.84;4922165;29;20052;-92
2022/10/08 09:16:53;;;;;;;14.02;4.60;;;;;;;15.71;52.16;100390.31;4903815;29;19954;-95
2022/10/08 09:19:20;;;;;;;16.60;5.15;;;;;;;15.35;52.74;100390.50;4926216;29;20036;-93
2022/10/08 09:21:46;;;;;;;20.80;5.20;;;;;;;15.02;51.68;100369.63;4984448;28;20054;-92
2022/10/08 09:24:14;;;;;;;19.05;6.07;;;;;;;15.11;52.32;100363.34;4983804;28;20371;-93
2022/10/08 09:26:41;;;;;;;20.10;6.47;;;;;;;15.39;51.56;100388.72;5015531;28;20038;-90
2022/10/08 09:29:32;;;;;;;19.15;6.20;;;;;;;15.66;51.74;100391.28;5019015;28;20042;-93
2022/10/08 09:32:01;;;;;;;16.08;4.18;;;;;;;15.39;51.35;100330.88;4951399;29;20326;-91
2022/10/08 09:34:29;;;;;;;15.18;4.40;;;;;;;15.55;51.79;100376.13;4957180;29;20178;-93
2022/10/08 09:37:02;;;;;;;19.55;4.80;;;;;;;15.47;52.33;100388.78;4925607;29;20119;-94
2022/10/08 09:39:37;;;;;;;17.55;4.45;;;;;;;15.20;54.28;100356.75;4945030;28;20090;-91
2022/10/08 09:42:11;;;;;;;19.70;5.30;;;;;;;15.62;52.85;100378.44;4940390;29;20153;-92
2022/10/08 09:44:55;;;;;;;17.05;4.57;;;;;;;15.67;51.20;100375.56;4954562;29;20070;-93
2022/10/08 09:47:24;;;;;;;11.77;3.40;;;;;;;15.96;52.43;100377.72;4924153;29;20043;-89
2022/10/08 09:50:17;;;;;;;16.83;4.35;;;;;;;15.99;51.77;100371.53;4957595;28;20051;-90
2022/10/08 09:56:27;;;;;;;18.73;5.70;;;;;;;16.03;49.08;100300.81;4951067;28;20022;-91
2022/10/08 09:59:03;;;;;;;17.77;5.75;;;;;;;16.33;50.22;100334.06;4930777;28;20432;-88
2022/10/08 10:01:45;;;;;;;22.17;6.73;;;;;;;16.37;49.67;100357.09;4956816;29;20199;-92
2022/10/08 10:04:23;;;;;;;17.75;6.10;;;;;;;16.29;51.99;100298.03;4949744;29;20402;-90
2022/10/08 10:06:54;;;;;;;15.18;3.88;;;;;;;16.53;48.21;100311.28;4949854;28;20050;-92
2022/10/08 10:09:42;;;;;;;11.55;4.38;;;;;;;16.94;49.95;100342.22;4949361;28;20057;-93
2022/10/08 10:12:28;;;;;;;12.32;5.00;;;;;;;16.73;49.09;100295.97;4979896;28;20042;-93
2022/10/08 10:15:03;;;;;;;12.18;4.40;;;;;;;16.61;47.66;100282.03;4997904;28;20034;-89
2022/10/08 10:17:39;;;;;;;16.25;4.03;;;;;;;16.95;50.49;100335.53;4998324;28;20046;-93
2022/10/08 10:20:31;;;;;;;20.67;7.43;;;;;;;16.70;48.91;100312.38;5016236;28;20053;-92
2022/10/08 10:23:24;;;;;;;14.35;5.45;;;;;;;16.32;48.79;100297.34;4979572;28;20046;-94
2022/10/08 10:25:58;;;;;;;19.20;5.63;;;;;;;16.66;49.76;100310.28;4993100;28;20451;-90
2022/10/08 10:28:47;;;;;;;22.48;5.90;;;;;;;16.63;48.13;100334.97;5003262;28;20030;-90
2022/10/08 10:31:53;;;;;;;34.80;13.48;;;;;;;16.60;49.67;100319.88;5020635;28;20050;-89
2022/10/08 10:34:32;;;;;;;38.65;9.23;;;;;;;16.23;48.69;100277.28;4986785;28;20050;-89
2022/10/08 10:37:04;;;;;;;23.75;7.07;;;;;;;16.50;50.29;100298.16;4987203;28;20060;-89
2022/10/08 10:40:07;;;;;;;19.73;6.00;;;;;;;17.21;48.62;100316.09;4987894;28;20069;-89
2022/10/08 10:43:07;;;;;;;21.98;6.05;;;;;;;16.61;46.81;100257.19;5016015;28;20101;-94
2022/10/08 10:45:34;;;;;;;13.20;3.72;;;;;;;16.69;47.85;100270.16;5018067;28;20088;-89
2022/10/08 10:48:03;;;;;;;12.20;3.65;;;;;;;16.70;47.58;100293.88;4999786;28;20038;-90
2022/10/08 10:50:49;;;;;;;14.77;4.55;;;;;;;16.56;48.48;100274.75;4985241;28;20048;-88
2022/10/08 10:53:54;;;;;;;14.40;3.90;;;;;;;16.70;48.90;100293.06;4995470;28;20145;-89
2022/10/08 10:56:21;;;;;;;20.25;6.78;;;;;;;16.41;49.59;100253.19;4996545;28;20702;-93
2022/10/08 10:58:58;;;;;;;;;;;;;;;16.75;47.78;100290.13;4998475;28;20034;-92
2022/10/08 11:01:50;;;;;;;;;;;;;;;16.75;48.67;100285.41;4980465;28;19941;-92
2022/10/08 11:04:59;;;;;;;15.23;4.85;;;;;;;16.37;48.29;100261.31;4969169;28;20379;-89
2022/10/08 11:07:41;;;;;;;19.50;4.35;;;;;;;16.18;49.24;100258.09;4927286;28;20503;-88
2022/10/08 11:10:28;;;;;;;16.50;5.63;;;;;;;16.15;48.98;100295.44;4979736;28;20416;-91
2022/10/08 11:12:59;;;;;;;19.58;7.85;;;;;;;16.16;49.59;100283.28;4963752;28;20050;-91
2022/10/08 11:15:35;;;;;;;25.02;8.13;;;;;;;16.12;49.13;100274.00;5010734;28;20045;-88
2022/10/08 11:18:27;;;;;;;14.68;6.00;;;;;;;16.32;49.35;100275.28;4999655;28;20133;-88
2022/10/08 11:20:59;;;;;;;16.85;5.35;;;;;;;16.44;49.73;100274.63;4981746;28;20042;-92
2022/10/08 11:23:37;;;;;;;22.85;5.22;;;;;;;16.59;50.54;100267.75;4980048;28;20096;-90
2022/10/08 11:26:29;;;;;;;13.70;4.13;;;;;;;16.54;47.14;100252.19;5010755;28;20034;-90
2022/10/08 11:29:32;;;;;;;17.48;4.95;;;;;;;16.53;47.85;100264.38;5032725;28;20084;-93
2022/10/08 11:32:02;;;;;;;22.42;5.38;;;;;;;16.54;47.71;100257.69;5016424;28;20053;-90
2022/10/08 11:34:34;;;;;;;24.10;6.05;;;;;;;16.44;48.00;100239.53;4999372;28;20037;-90
2022/10/08 11:37:12;;;;;;;15.23;4.55;;;;;;;16.56;48.75;100254.63;4996722;28;20042;-90
2022/10/08 11:39:53;;;;;;;21.83;4.80;;;;;;;16.77;49.96;100222.41;4979706;28;20125;-93
2022/10/08 11:42:45;;;;;;;14.88;5.40;;;;;;;16.91;47.77;100249.78;5011846;28;20046;-92
2022/10/08 11:45:24;;;;;;;21.98;7.32;;;;;;;16.83;47.43;100248.69;4963511;28;20077;-93
2022/10/08 11:48:32;;;;;;;16.52;5.72;;;;;;;16.82;50.22;100197.38;5009069;28;20466;-89
2022/10/08 11:51:20;;;;;;;15.57;5.57;;;;;;;16.99;49.38;100232.38;5012755;28;20038;-89
2022/10/08 11:54:12;;;;;;;27.00;8.60;;;;;;;17.00;48.12;100233.16;4981005;28;20034;-91
2022/10/08 11:57:18;;;;;;;25.38;6.13;;;;;;;17.19;49.51;100192.09;5009883;28;20037;-89
2022/10/08 12:00:11;;;;;;;23.65;6.80;;;;;;;17.17;46.76;100226.72;4984227;28;20037;-94
2022/10/08 12:02:42;;;;;;;17.30;5.32;;;;;;;16.96;47.52;100210.13;5004052;28;20061;-90
2022/10/08 12:05:22;;;;;;;15.73;6.53;;;;;;;16.70;46.80;100169.63;4992198;28;20058;-90
2022/10/08 12:07:57;;;;;;;14.07;4.82;;;;;;;16.78;46.85;100198.34;4983802;28;20053;-91
2022/10/08 12:10:28;;;;;;;26.08;9.02;;;;;;;16.75;46.72;100193.50;4980477;28;20061;-91